createdAt,value
2022-08-05T00:01:56.755Z,6.22
2022-08-05T00:04:09.718Z,7.88
2022-08-05T00:06:28.932Z,8.93
2022-08-05T00:08:36.249Z,5.05
2022-08-05T00:10:37.921Z,5.72
2022-08-05T00:12:48.521Z,5.40
2022-08-05T00:17:02.102Z,7.57
2022-08-05T00:19:04.809Z,6.45
2022-08-05T00:21:08.399Z,4.85
2022-08-05T00:23:12.937Z,5.10
2022-08-05T00:25:14.724Z,8.50
2022-08-05T00:27:17.856Z,6.65
2022-08-05T00:29:22.531Z,5.50
2022-08-05T00:31:53.635Z,5.72
2022-08-05T00:34:53.627Z,5.72
2022-08-05T00:36:16.656Z,4.75
2022-08-05T00:38:29.024Z,6.82
2022-08-05T00:40:51.818Z,5.53
2022-08-05T00:42:55.357Z,9.90
2022-08-05T00:44:56.845Z,7.75
2022-08-05T00:47:02.217Z,3.53
2022-08-05T00:49:05.784Z,6.80
2022-08-05T00:51:50.683Z,11.52
2022-08-05T00:53:45.411Z,7.43
2022-08-05T00:55:52.733Z,7.00
2022-08-05T00:57:58.100Z,6.78
2022-08-05T01:00:00.806Z,11.57
2022-08-05T01:02:02.344Z,8.10
2022-08-05T01:04:04.015Z,7.05
2022-08-05T01:06:15.625Z,5.15
2022-08-05T01:08:40.454Z,11.68
2022-08-05T01:10:51.636Z,10.57
2022-08-05T01:13:05.261Z,10.50
2022-08-05T01:15:36.264Z,8.70
2022-08-05T01:17:44.039Z,8.75
2022-08-05T01:20:00.995Z,7.97
2022-08-05T01:22:29.282Z,11.23
2022-08-05T01:24:52.494Z,3.97
2022-08-05T01:27:19.806Z,5.38
2022-08-05T01:29:38.073Z,4.57
2022-08-05T01:31:52.628Z,7.82
2022-08-05T01:34:04.560Z,6.13
2022-08-05T01:36:12.837Z,5.82
2022-08-05T01:38:26.905Z,4.65
2022-08-05T01:40:31.638Z,9.02
2022-08-05T01:42:36.571Z,4.45
2022-08-05T01:44:40.010Z,7.43
2022-08-05T01:46:46.199Z,6.45
2022-08-05T01:48:50.164Z,4.80
2022-08-05T01:50:53.185Z,3.85
2022-08-05T01:52:59.143Z,6.40
2022-08-05T01:55:05.598Z,6.07
2022-08-05T01:58:11.343Z,8.48
2022-08-05T01:59:34.012Z,4.85
2022-08-05T02:01:40.117Z,4.43
2022-08-05T02:03:46.725Z,6.13
2022-08-05T02:05:49.920Z,9.63
2022-08-05T02:08:00.287Z,5.03
2022-08-05T02:10:04.959Z,8.27
2022-08-05T02:12:25.424Z,7.35
2022-08-05T02:14:32.358Z,7.73
2022-08-05T02:16:42.050Z,4.57
2022-08-05T02:18:52.512Z,6.57
2022-08-05T02:21:03.762Z,9.27
2022-08-05T02:23:10.912Z,6.57
2022-08-05T02:25:18.309Z,10.02
2022-08-05T02:27:30.251Z,4.30
2022-08-05T02:29:59.175Z,6.13
2022-08-05T02:32:04.827Z,5.82
2022-08-05T02:34:13.531Z,8.80
2022-08-05T02:38:19.484Z,7.47
2022-08-05T02:40:24.135Z,6.78
2022-08-05T02:42:30.697Z,9.93
2022-08-05T02:44:38.429Z,6.10
2022-08-05T02:46:58.375Z,3.85
2022-08-05T02:49:03.075Z,10.63
2022-08-05T02:51:05.762Z,10.85
2022-08-05T02:53:07.459Z,8.30
2022-08-05T02:55:14.355Z,8.27
2022-08-05T02:58:11.773Z,6.88
2022-08-05T02:59:50.278Z,8.52
2022-08-05T03:01:58.137Z,5.80
2022-08-05T03:04:14.129Z,5.15
2022-08-05T03:06:54.784Z,11.30
2022-08-05T03:08:42.793Z,12.32
2022-08-05T03:11:53.288Z,4.93
2022-08-05T03:13:17.973Z,8.98
2022-08-05T03:15:20.511Z,7.85
2022-08-05T03:17:22.235Z,8.70
2022-08-05T03:19:34.300Z,9.18
2022-08-05T03:21:41.600Z,11.65
2022-08-05T03:23:51.713Z,10.02
2022-08-05T03:26:04.743Z,9.98
2022-08-05T03:28:18.737Z,8.30
2022-08-05T03:30:23.255Z,9.05
2022-08-05T03:32:35.950Z,7.82
2022-08-05T03:34:38.518Z,10.85
2022-08-05T03:36:41.384Z,4.18
2022-08-05T03:38:52.491Z,6.53
2022-08-05T03:40:55.156Z,6.90
2022-08-05T03:43:01.659Z,6.85
2022-08-05T03:45:23.380Z,8.05
2022-08-05T03:47:25.529Z,18.75
2022-08-05T03:49:52.005Z,6.38
2022-08-05T03:52:50.200Z,10.10
2022-08-05T03:56:01.165Z,8.95
2022-08-05T03:57:00.165Z,7.80
2022-08-05T03:59:06.643Z,11.48
2022-08-05T04:01:11.204Z,7.13
2022-08-05T04:03:28.509Z,6.47
2022-08-05T04:05:34.421Z,5.57
2022-08-05T04:07:58.296Z,9.35
2022-08-05T04:10:01.648Z,7.25
2022-08-05T04:12:05.174Z,12.00
2022-08-05T04:14:29.936Z,7.45
2022-08-05T04:16:33.002Z,8.20
2022-08-05T04:18:34.834Z,13.32
2022-08-05T04:20:36.473Z,8.85
2022-08-05T04:22:37.980Z,7.93
2022-08-05T04:24:52.840Z,11.43
2022-08-05T04:26:54.640Z,10.23
2022-08-05T04:29:00.827Z,8.68
2022-08-05T04:31:10.530Z,13.27
2022-08-05T04:33:13.353Z,6.55
2022-08-05T04:35:17.693Z,9.00
2022-08-05T04:37:22.876Z,6.80
2022-08-05T04:39:42.892Z,9.80
2022-08-05T04:41:44.529Z,8.65
2022-08-05T04:43:47.303Z,8.13
2022-08-05T04:45:55.105Z,7.28
2022-08-05T04:48:10.221Z,9.05
2022-08-05T04:50:37.394Z,6.47
2022-08-05T04:52:40.760Z,8.65
2022-08-05T04:54:42.531Z,8.73
2022-08-05T04:57:04.186Z,9.05
2022-08-05T04:59:21.465Z,9.35
2022-08-05T05:02:05.445Z,10.00
2022-08-05T05:03:47.403Z,13.82
2022-08-05T05:06:39.670Z,9.35
2022-08-05T05:08:14.359Z,5.93
2022-08-05T05:10:33.878Z,8.50
2022-08-05T05:12:36.659Z,9.32
2022-08-05T05:14:38.475Z,11.50
2022-08-05T05:16:51.098Z,11.77
2022-08-05T05:19:17.603Z,7.38
2022-08-05T05:21:17.498Z,7.85
2022-08-05T05:23:19.932Z,13.80
2022-08-05T05:25:21.821Z,12.50
2022-08-05T05:27:45.767Z,10.93
2022-08-05T05:30:04.175Z,9.85
2022-08-05T05:32:07.780Z,11.00
2022-08-05T05:34:14.308Z,9.95
2022-08-05T05:36:17.303Z,10.20
2022-08-05T05:38:22.925Z,11.07
2022-08-05T05:40:32.155Z,17.30
2022-08-05T05:42:33.729Z,11.07
2022-08-05T05:44:42.971Z,14.32
2022-08-05T05:46:47.755Z,8.98
2022-08-05T05:48:49.375Z,10.70
2022-08-05T05:50:52.364Z,10.68
2022-08-05T05:52:54.328Z,7.57
2022-08-05T05:54:55.848Z,10.07
2022-08-05T05:56:57.343Z,9.98
2022-08-05T05:59:03.403Z,9.25
2022-08-05T06:01:13.121Z,12.60
2022-08-05T06:03:40.064Z,12.50
2022-08-05T06:05:38.239Z,10.00
2022-08-05T06:07:41.874Z,10.63
2022-08-05T06:09:59.918Z,8.13
2022-08-05T06:12:04.003Z,17.45
2022-08-05T06:14:05.584Z,12.13
2022-08-05T06:16:30.232Z,11.60
2022-08-05T06:18:31.436Z,9.85
2022-08-05T06:20:33.312Z,12.05
2022-08-05T06:22:37.362Z,9.35
2022-08-05T06:24:48.291Z,12.48
2022-08-05T06:26:52.220Z,10.88
2022-08-05T06:28:54.693Z,12.13
2022-08-05T06:30:56.236Z,12.27
2022-08-05T06:32:57.778Z,10.75
2022-08-05T06:34:59.521Z,9.50
2022-08-05T06:37:08.107Z,8.88
2022-08-05T06:39:10.058Z,8.77
2022-08-05T06:41:11.721Z,8.63
2022-08-05T06:43:59.755Z,8.55
2022-08-05T06:46:02.928Z,7.82
2022-08-05T06:48:37.016Z,7.30
2022-08-05T06:50:18.803Z,16.20
2022-08-05T06:52:38.271Z,11.18
2022-08-05T06:54:42.021Z,12.60
2022-08-05T06:56:55.136Z,9.65
2022-08-05T06:59:08.382Z,8.13
2022-08-05T07:01:11.319Z,13.60
2022-08-05T07:03:14.970Z,7.55
2022-08-05T07:05:19.137Z,8.48
2022-08-05T07:07:24.087Z,8.27
2022-08-05T07:09:37.438Z,7.95
2022-08-05T07:11:44.568Z,10.15
2022-08-05T07:14:15.333Z,14.73
2022-08-05T07:18:00.089Z,7.97
2022-08-05T07:19:02.355Z,8.50
2022-08-05T07:21:06.256Z,8.85
2022-08-05T07:23:09.835Z,7.80
2022-08-05T07:25:55.149Z,9.73
2022-08-05T07:27:57.949Z,10.20
2022-08-05T07:30:27.255Z,10.80
2022-08-05T07:32:26.043Z,8.27
2022-08-05T07:34:28.801Z,9.02
2022-08-05T07:36:30.960Z,11.10
2022-08-05T07:38:42.507Z,7.43
2022-08-05T07:40:45.482Z,9.05
2022-08-05T07:42:57.124Z,8.60
2022-08-05T07:45:00.556Z,6.88
2022-08-05T07:47:02.105Z,8.52
2022-08-05T07:49:09.485Z,7.72
2022-08-05T07:51:23.492Z,7.75
2022-08-05T07:53:36.997Z,8.60
2022-08-05T07:56:05.511Z,9.10
2022-08-05T07:58:17.794Z,5.50
2022-08-05T08:00:35.537Z,6.32
2022-08-05T08:03:13.719Z,7.43
2022-08-05T08:04:59.616Z,5.28
2022-08-05T08:07:05.387Z,7.97
2022-08-05T08:09:07.152Z,7.15
2022-08-05T08:11:09.106Z,8.52
2022-08-05T08:16:33.927Z,9.13
2022-08-05T08:17:53.258Z,12.10
2022-08-05T08:20:21.206Z,6.95
2022-08-05T08:22:16.584Z,9.70
2022-08-05T08:24:18.121Z,8.27
2022-08-05T08:26:26.926Z,7.47
2022-08-05T08:28:36.223Z,7.35
2022-08-05T08:30:47.718Z,7.25
2022-08-05T08:32:51.297Z,7.25
2022-08-05T08:34:52.793Z,7.72
2022-08-05T08:37:05.192Z,8.60
2022-08-05T08:39:15.060Z,9.82
2022-08-05T08:41:17.449Z,6.68
2022-08-05T08:45:18.028Z,7.18
2022-08-05T08:45:46.759Z,8.23
2022-08-05T08:48:07.474Z,7.00
2022-08-05T08:50:29.882Z,7.18
2022-08-05T08:52:36.405Z,7.63
2022-08-05T08:54:39.759Z,8.43
2022-08-05T08:56:47.560Z,5.22
2022-08-05T08:58:51.438Z,10.93
2022-08-05T09:00:53.167Z,6.82
2022-08-05T09:02:56.617Z,4.18
2022-08-05T09:05:17.929Z,4.40
2022-08-05T09:07:28.659Z,6.90
2022-08-05T09:09:34.867Z,6.20
2022-08-05T09:11:51.202Z,6.22
2022-08-05T09:14:09.182Z,7.97
2022-08-05T09:16:17.741Z,5.25
2022-08-05T09:18:20.371Z,6.55
2022-08-05T09:20:37.477Z,6.80
2022-08-05T09:23:07.766Z,8.07
2022-08-05T09:25:23.673Z,4.43
2022-08-05T09:28:05.293Z,7.60
2022-08-05T09:29:57.060Z,9.63
2022-08-05T09:32:42.124Z,6.25
2022-08-05T09:34:48.509Z,5.75
2022-08-05T09:36:56.352Z,6.78
2022-08-05T09:39:16.649Z,5.05
2022-08-05T09:41:20.095Z,5.70
2022-08-05T09:43:40.774Z,8.20
2022-08-05T09:46:06.176Z,5.93
2022-08-05T09:48:26.836Z,4.82
2022-08-05T09:50:44.568Z,5.43
2022-08-05T09:52:48.319Z,4.75
2022-08-05T09:55:21.138Z,7.10
2022-08-05T09:57:30.641Z,5.28
2022-08-05T09:59:37.252Z,4.80
2022-08-05T10:01:45.809Z,4.82
2022-08-05T10:04:13.623Z,7.22
2022-08-05T10:06:19.951Z,4.63
2022-08-05T10:08:37.249Z,6.85
2022-08-05T10:10:50.497Z,8.30
2022-08-05T10:12:59.214Z,4.78
2022-08-05T10:15:16.251Z,8.27
2022-08-05T10:17:37.168Z,7.10
2022-08-05T10:20:04.459Z,4.65
2022-08-05T10:22:02.942Z,4.50
2022-08-05T10:24:10.930Z,5.80
2022-08-05T10:26:14.204Z,4.95
2022-08-05T10:28:19.523Z,4.45
2022-08-05T10:32:46.947Z,6.15
2022-08-05T10:33:02.136Z,4.30
2022-08-05T10:35:04.654Z,6.03
2022-08-05T10:37:07.190Z,5.38
2022-08-05T10:39:24.834Z,4.07
2022-08-05T10:41:46.410Z,3.53
2022-08-05T10:44:01.845Z,1.80
2022-08-05T10:46:09.080Z,5.45
2022-08-05T10:48:57.371Z,3.75
2022-08-05T10:51:06.172Z,2.30
2022-08-05T10:53:37.992Z,4.15
2022-08-05T10:56:21.163Z,3.25
2022-08-05T10:58:35.855Z,4.75
2022-08-05T11:00:48.492Z,3.25
2022-08-05T11:03:23.498Z,4.57
2022-08-05T11:05:31.515Z,4.72
2022-08-05T11:08:01.096Z,3.70
2022-08-05T11:10:03.666Z,7.53
2022-08-05T11:12:26.873Z,6.38
2022-08-05T11:14:57.350Z,3.42
2022-08-05T11:17:58.205Z,3.55
2022-08-05T11:20:10.309Z,3.90
2022-08-05T11:22:53.902Z,4.75
2022-08-05T11:26:05.014Z,2.72
2022-08-05T11:28:00.825Z,4.40
2022-08-05T11:30:02.677Z,4.18
2022-08-05T11:32:23.467Z,3.38
2022-08-05T11:34:38.323Z,3.35
2022-08-05T11:36:44.656Z,6.05
2022-08-05T11:38:52.781Z,2.63
2022-08-05T11:41:14.211Z,3.10
2022-08-05T11:43:58.484Z,5.75
2022-08-05T11:46:30.872Z,2.10
2022-08-05T11:48:11.476Z,1.70
2022-08-05T11:50:14.240Z,3.38
2022-08-05T11:52:23.787Z,4.20
2022-08-05T11:54:34.910Z,4.18
2022-08-05T11:56:53.283Z,4.55
2022-08-05T11:58:54.751Z,4.57
2022-08-05T12:01:10.553Z,2.55
2022-08-05T12:03:24.006Z,4.35
2022-08-05T12:05:36.452Z,6.53
2022-08-05T12:08:08.220Z,5.00
2022-08-05T12:10:09.052Z,3.28
2022-08-05T12:12:11.580Z,6.00
2022-08-05T12:14:13.282Z,2.25
2022-08-05T12:16:19.125Z,5.10
2022-08-05T12:18:38.947Z,3.25
2022-08-05T12:20:40.769Z,3.03
2022-08-05T12:22:43.138Z,9.20
2022-08-05T12:24:51.716Z,4.65
2022-08-05T12:26:55.027Z,4.07
2022-08-05T12:28:56.658Z,9.57
2022-08-05T12:31:02.039Z,1.50
2022-08-05T12:33:07.434Z,8.20
2022-08-05T12:35:39.740Z,3.15
2022-08-05T12:37:42.826Z,4.10
2022-08-05T12:39:51.391Z,3.83
2022-08-05T12:41:59.467Z,3.03
2022-08-05T12:44:14.527Z,4.00
2022-08-05T12:46:36.330Z,5.78
2022-08-05T12:48:40.584Z,1.92
2022-08-05T12:50:42.185Z,5.38
2022-08-05T12:52:59.870Z,3.58
2022-08-05T12:55:01.464Z,4.57
2022-08-05T12:57:09.168Z,6.47
2022-08-05T12:59:27.337Z,9.33
2022-08-05T13:02:20.245Z,5.80
2022-08-05T13:04:41.790Z,6.63
2022-08-05T13:06:58.059Z,3.00
2022-08-05T13:09:07.737Z,7.82
2022-08-05T13:11:17.449Z,5.88
2022-08-05T13:14:04.905Z,4.22
2022-08-05T13:16:01.370Z,8.50
2022-08-05T13:18:04.605Z,3.38
2022-08-05T13:20:24.167Z,4.65
2022-08-05T13:24:44.998Z,2.47
2022-08-05T13:26:53.119Z,5.10
2022-08-05T13:28:54.767Z,4.50
2022-08-05T13:30:57.228Z,3.72
2022-08-05T13:33:01.424Z,2.08
2022-08-05T13:35:04.054Z,2.33
2022-08-05T13:37:05.660Z,1.42
2022-08-05T13:39:24.638Z,2.17
2022-08-05T13:41:37.522Z,2.08
2022-08-05T13:43:44.163Z,2.35
2022-08-05T13:45:47.866Z,2.60
2022-08-05T13:48:09.975Z,2.60
2022-08-05T13:50:16.768Z,3.40
2022-08-05T13:52:29.085Z,3.95
2022-08-05T13:54:31.008Z,5.57
2022-08-05T13:56:32.964Z,2.05
2022-08-05T13:58:35.653Z,3.88
2022-08-05T14:00:41.655Z,9.00
2022-08-05T14:02:43.339Z,3.30
2022-08-05T14:05:05.184Z,6.15
2022-08-05T14:09:29.788Z,3.53
2022-08-05T14:11:31.807Z,5.32
2022-08-05T14:13:55.069Z,4.43
2022-08-05T14:16:09.178Z,7.72
2022-08-05T14:18:17.591Z,2.35
2022-08-05T14:20:20.693Z,1.60
2022-08-05T14:22:30.274Z,11.65
2022-08-05T14:24:36.135Z,1.30
2022-08-05T14:26:51.495Z,6.15
2022-08-05T14:29:00.027Z,0.68
2022-08-05T14:31:01.927Z,1.42
2022-08-05T14:33:04.699Z,2.10
2022-08-05T14:35:10.625Z,0.88
2022-08-05T14:37:13.396Z,0.68
2022-08-05T14:39:23.590Z,0.43
2022-08-05T14:41:25.205Z,0.38
2022-08-05T14:43:59.215Z,2.05
2022-08-05T14:45:49.370Z,1.95
2022-08-05T14:48:05.710Z,5.20
2022-08-05T14:50:17.191Z,6.97
2022-08-05T14:52:42.901Z,0.80
2022-08-05T14:54:52.795Z,1.10
2022-08-05T14:56:55.399Z,0.30
2022-08-05T14:58:56.951Z,2.15
2022-08-05T15:01:00.270Z,4.35
2022-08-05T15:03:03.414Z,0.98
2022-08-05T15:05:08.771Z,2.80
2022-08-05T15:08:12.464Z,1.33
2022-08-05T15:09:51.742Z,5.78
2022-08-05T15:11:57.017Z,1.58
2022-08-05T15:13:59.201Z,2.70
2022-08-05T15:16:01.690Z,5.93
2022-08-05T15:18:03.750Z,3.22
2022-08-05T15:20:18.410Z,1.33
2022-08-05T15:22:20.975Z,0.77
2022-08-05T15:24:23.012Z,1.95
2022-08-05T15:26:32.063Z,0.32
2022-08-05T15:28:34.001Z,1.85
2022-08-05T15:30:38.802Z,0.70
2022-08-05T15:32:41.388Z,0.88
2022-08-05T15:34:42.921Z,2.65
2022-08-05T15:36:44.453Z,3.97
2022-08-05T15:38:46.412Z,2.28
2022-08-05T15:41:03.773Z,1.02
2022-08-05T15:43:19.875Z,3.05
2022-08-05T15:45:36.325Z,1.85
2022-08-05T15:47:42.217Z,1.35
2022-08-05T15:49:58.466Z,0.70
2022-08-05T15:52:12.568Z,3.92
2022-08-05T15:54:34.515Z,1.60
2022-08-05T15:56:36.759Z,0.25
2022-08-05T15:58:38.269Z,0.68
2022-08-05T16:00:57.109Z,3.00
2022-08-05T16:03:03.611Z,2.13
2022-08-05T16:05:05.804Z,1.50
2022-08-05T16:07:11.382Z,0.88
2022-08-05T16:09:15.377Z,2.28
2022-08-05T16:11:17.084Z,2.10
2022-08-05T16:13:23.629Z,1.65
2022-08-05T16:15:32.370Z,3.45
2022-08-05T16:17:34.060Z,0.57
2022-08-05T16:20:05.242Z,0.55
2022-08-05T16:22:00.528Z,1.70
2022-08-05T16:24:04.658Z,0.20
2022-08-05T16:26:10.902Z,1.80
2022-08-05T16:28:15.604Z,0.60
2022-08-05T16:30:25.748Z,0.98
2022-08-05T16:32:29.389Z,5.70
2022-08-05T16:34:31.322Z,2.80
2022-08-05T16:36:33.016Z,0.13
2022-08-05T16:38:35.679Z,0.35
2022-08-05T16:40:37.444Z,1.35
2022-08-05T16:42:39.241Z,1.45
2022-08-05T16:44:41.258Z,0.68
2022-08-05T16:46:56.025Z,2.05
2022-08-05T16:48:57.923Z,3.38
2022-08-05T16:50:59.458Z,2.55
2022-08-05T16:53:12.127Z,1.45
2022-08-05T16:55:14.258Z,0.57
2022-08-05T16:57:22.045Z,0.93
2022-08-05T16:59:30.645Z,0.73
2022-08-05T17:01:54.997Z,1.55
2022-08-05T17:03:54.309Z,1.95
2022-08-05T17:05:59.535Z,1.27
2022-08-05T17:08:01.278Z,2.72
2022-08-05T17:10:03.645Z,1.83
2022-08-05T17:12:05.393Z,0.45
2022-08-05T17:14:06.921Z,0.63
2022-08-05T17:16:32.688Z,0.83
2022-08-05T17:18:34.746Z,0.57
2022-08-05T17:20:36.396Z,1.23
2022-08-05T17:22:38.816Z,1.73
2022-08-05T17:24:57.173Z,2.40
2022-08-05T17:27:00.162Z,1.23
2022-08-05T17:29:04.221Z,1.58
2022-08-05T17:31:24.387Z,0.50
2022-08-05T17:33:38.734Z,0.98
2022-08-05T17:36:08.654Z,1.05
2022-08-05T17:38:11.377Z,1.27
2022-08-05T17:40:22.543Z,0.68
2022-08-05T17:42:29.734Z,2.35
2022-08-05T17:44:33.738Z,1.45
2022-08-05T17:46:36.811Z,0.20
2022-08-05T17:48:38.441Z,1.23
2022-08-05T17:50:40.012Z,0.35
2022-08-05T17:52:53.266Z,1.58
2022-08-05T17:54:56.544Z,0.50
2022-08-05T17:56:58.615Z,1.35
2022-08-05T17:59:00.196Z,0.40
2022-08-05T18:01:01.818Z,2.15
2022-08-05T18:03:10.177Z,0.20
2022-08-05T18:05:11.741Z,1.60
2022-08-05T18:07:18.515Z,1.95
2022-08-05T18:09:22.642Z,2.00
2022-08-05T18:11:44.204Z,0.73
2022-08-05T18:13:45.697Z,0.28
2022-08-05T18:15:47.591Z,0.55
2022-08-05T18:17:59.270Z,0.25
2022-08-05T18:20:03.659Z,0.50
2022-08-05T18:22:09.245Z,1.58
2022-08-05T18:24:12.726Z,1.58
2022-08-05T18:26:18.183Z,1.45
2022-08-05T18:28:22.091Z,3.15
2022-08-05T18:30:29.802Z,2.35
2022-08-05T18:32:31.582Z,0.57
2022-08-05T18:34:41.119Z,0.75
2022-08-05T18:36:43.608Z,0.85
2022-08-05T18:38:45.385Z,0.22
2022-08-05T18:41:56.590Z,0.32
2022-08-05T18:43:09.053Z,1.48
2022-08-05T18:45:18.116Z,1.13
2022-08-05T18:47:22.750Z,0.90
2022-08-05T18:49:57.824Z,1.50
2022-08-05T18:52:33.221Z,3.65
2022-08-05T18:54:35.111Z,0.43
2022-08-05T18:56:36.626Z,0.55
2022-08-05T18:58:39.872Z,2.05
2022-08-05T19:00:44.613Z,0.43
2022-08-05T19:02:50.252Z,0.57
2022-08-05T19:05:01.688Z,0.82
2022-08-05T19:07:14.553Z,1.48
2022-08-05T19:09:16.061Z,0.55
2022-08-05T19:11:28.021Z,1.42
2022-08-05T19:13:30.295Z,0.68
2022-08-05T19:15:58.199Z,0.50
2022-08-05T19:18:10.350Z,1.33
2022-08-05T19:20:15.272Z,2.28
2022-08-05T19:22:17.701Z,2.70
2022-08-05T19:24:34.815Z,2.95
2022-08-05T19:26:54.158Z,2.63
2022-08-05T19:28:57.091Z,1.17
2022-08-05T19:30:59.172Z,0.80
2022-08-05T19:33:04.636Z,0.85
2022-08-05T19:35:07.626Z,2.55
2022-08-05T19:37:10.054Z,0.50
2022-08-05T19:39:11.629Z,0.63
2022-08-05T19:41:21.957Z,1.23
2022-08-05T19:44:05.804Z,0.98
2022-08-05T19:45:58.778Z,2.25
2022-08-05T19:48:01.061Z,1.00
2022-08-05T19:50:02.833Z,0.63
2022-08-05T19:52:29.300Z,0.45
2022-08-05T19:54:31.551Z,0.20
2022-08-05T19:56:35.394Z,0.40
2022-08-05T19:58:53.584Z,3.15
2022-08-05T20:00:55.950Z,1.75
2022-08-05T20:02:58.701Z,4.90
2022-08-05T20:05:00.349Z,1.33
2022-08-05T20:07:02.426Z,0.63
2022-08-05T20:09:13.995Z,0.28
2022-08-05T20:11:18.099Z,1.00
2022-08-05T20:13:25.813Z,0.55
2022-08-05T20:15:52.502Z,3.25
2022-08-05T20:18:01.108Z,0.70
2022-08-05T20:20:07.576Z,1.83
2022-08-05T20:22:10.942Z,0.77
2022-08-05T20:24:14.270Z,0.30
2022-08-05T20:26:24.572Z,2.13
2022-08-05T20:28:26.879Z,1.35
2022-08-05T20:30:30.193Z,0.60
2022-08-05T20:32:31.890Z,2.05
2022-08-05T20:34:34.768Z,1.27
2022-08-05T20:36:38.994Z,2.38
2022-08-05T20:38:53.447Z,3.17
2022-08-05T20:40:56.962Z,1.85
2022-08-05T20:43:00.015Z,1.75
2022-08-05T20:45:01.764Z,1.55
2022-08-05T20:47:06.705Z,2.30
2022-08-05T20:49:09.102Z,0.65
2022-08-05T20:51:10.626Z,0.60
2022-08-05T20:53:16.015Z,8.40
2022-08-05T20:56:07.349Z,2.13
2022-08-05T20:57:57.619Z,1.35
2022-08-05T21:00:20.614Z,1.58
2022-08-05T21:02:20.651Z,3.92
2022-08-05T21:04:30.101Z,1.20
2022-08-05T21:06:31.575Z,2.50
2022-08-05T21:08:42.040Z,3.75
2022-08-05T21:10:49.006Z,2.15
2022-08-05T21:12:57.986Z,1.67
2022-08-05T21:15:10.822Z,4.53
2022-08-05T21:17:12.619Z,0.70
2022-08-05T21:19:14.200Z,2.28
2022-08-05T21:21:15.715Z,2.50
2022-08-05T21:23:17.228Z,1.52
2022-08-05T21:25:18.757Z,1.20
2022-08-05T21:27:25.487Z,1.20
2022-08-05T21:31:41.158Z,0.98
2022-08-05T21:33:43.521Z,2.42
2022-08-05T21:35:55.759Z,3.22
2022-08-05T21:38:02.205Z,2.10
2022-08-05T21:40:05.706Z,4.60
2022-08-05T21:42:07.753Z,2.42
2022-08-05T21:44:31.079Z,3.38
2022-08-05T21:46:34.223Z,1.23
2022-08-05T21:48:36.394Z,2.38
2022-08-05T21:50:37.897Z,4.78
2022-08-05T21:52:39.617Z,1.40
2022-08-05T21:54:51.876Z,17.48
2022-08-05T21:57:15.490Z,6.93
2022-08-05T21:59:23.866Z,3.63
2022-08-05T22:01:26.918Z,1.92
2022-08-05T22:03:51.872Z,2.33
2022-08-05T22:05:53.273Z,2.15
2022-08-05T22:07:58.889Z,1.63
2022-08-05T22:10:01.531Z,1.98
2022-08-05T22:12:03.381Z,2.33
2022-08-05T22:14:33.672Z,2.83
2022-08-05T22:16:51.847Z,1.48
2022-08-05T22:18:58.601Z,4.38
2022-08-05T22:21:00.760Z,5.10
2022-08-05T22:23:24.553Z,2.30
2022-08-05T22:26:10.169Z,1.25
2022-08-05T22:28:10.328Z,1.15
2022-08-05T22:30:14.891Z,0.88
2022-08-05T22:32:18.705Z,2.38
2022-08-05T22:34:28.481Z,2.33
2022-08-05T22:36:30.627Z,3.72
2022-08-05T22:38:32.170Z,2.80
2022-08-05T22:40:35.968Z,5.50
2022-08-05T22:42:37.479Z,1.83
2022-08-05T22:44:53.607Z,1.75
2022-08-05T22:46:58.383Z,2.08
2022-08-05T22:49:00.260Z,1.67
2022-08-05T22:51:01.795Z,4.07
2022-08-05T22:53:10.349Z,4.57
2022-08-05T22:55:19.432Z,6.65
2022-08-05T22:57:21.696Z,3.90
2022-08-05T22:59:46.517Z,3.80
2022-08-05T23:02:04.178Z,3.53
2022-08-05T23:04:07.574Z,2.63
2022-08-05T23:06:09.234Z,2.95
2022-08-05T23:08:12.379Z,1.15
2022-08-05T23:10:16.469Z,1.98
2022-08-05T23:12:24.347Z,1.92
2022-08-05T23:14:31.872Z,6.13
2022-08-05T23:16:52.514Z,1.65
2022-08-05T23:18:54.221Z,4.43
2022-08-05T23:20:57.234Z,3.72
2022-08-05T23:23:03.550Z,1.00
2022-08-05T23:25:08.114Z,1.60
2022-08-05T23:27:13.424Z,2.42
2022-08-05T23:29:15.684Z,2.60
2022-08-05T23:31:18.076Z,4.10
2022-08-05T23:33:25.582Z,2.92
2022-08-05T23:35:28.674Z,3.53
2022-08-05T23:37:36.682Z,1.30
2022-08-05T23:39:53.982Z,3.45
2022-08-05T23:41:56.846Z,2.92
2022-08-05T23:44:05.451Z,2.75
2022-08-05T23:46:21.483Z,3.00
2022-08-05T23:48:23.510Z,1.92
2022-08-05T23:50:27.911Z,2.45
2022-08-05T23:52:36.089Z,3.70
2022-08-05T23:56:53.977Z,1.40
2022-08-05T23:58:55.446Z,1.92
